createdAt,value
2024-01-15T00:00:31.473Z,96065.00
2024-01-15T00:02:58.735Z,96051.00
2024-01-15T00:05:26.070Z,96062.00
2024-01-15T00:07:53.005Z,96044.00
2024-01-15T00:10:19.941Z,96029.00
2024-01-15T00:12:46.967Z,96022.00
2024-01-15T00:15:17.434Z,96011.00
2024-01-15T00:17:44.383Z,96008.00
2024-01-15T00:20:11.832Z,96039.00
2024-01-15T00:22:38.996Z,96040.00
2024-01-15T00:25:06.344Z,96027.00
2024-01-15T00:27:33.276Z,96029.00
2024-01-15T00:30:00.464Z,96023.00
2024-01-15T00:32:27.384Z,96017.00
2024-01-15T00:34:54.354Z,96024.00
2024-01-15T00:37:21.205Z,96021.00
2024-01-15T00:39:48.111Z,96002.00
2024-01-15T00:42:14.992Z,95999.00
2024-01-15T00:44:43.116Z,96012.00
2024-01-15T00:47:10.011Z,96011.00
2024-01-15T00:49:37.010Z,96014.00
2024-01-15T00:52:04.187Z,96008.00
2024-01-15T00:54:31.846Z,96020.00
2024-01-15T00:56:58.709Z,96018.00
2024-01-15T00:59:25.609Z,95996.00
2024-01-15T01:01:52.562Z,96017.00
2024-01-15T01:04:19.713Z,95998.00
2024-01-15T01:06:46.702Z,96017.00
2024-01-15T01:09:13.707Z,96037.00
2024-01-15T01:11:40.602Z,96002.00
2024-01-15T01:14:07.548Z,96016.00
2024-01-15T01:16:39.773Z,95998.00
2024-01-15T01:19:08.430Z,96021.00
2024-01-15T01:21:35.716Z,96022.00
2024-01-15T01:24:02.976Z,95980.00
2024-01-15T01:26:30.296Z,96004.00
2024-01-15T01:28:57.280Z,96021.00
2024-01-15T01:31:25.318Z,95967.00
2024-01-15T01:33:52.555Z,95965.00
2024-01-15T01:36:19.652Z,96007.00
2024-01-15T01:38:46.780Z,95991.00
2024-01-15T01:41:13.765Z,96003.00
2024-01-15T01:43:40.779Z,96018.00
2024-01-15T01:46:08.526Z,96012.00
2024-01-15T01:48:37.788Z,95977.00
2024-01-15T01:51:06.031Z,95946.00
2024-01-15T01:53:36.335Z,95988.00
2024-01-15T01:56:05.253Z,95999.00
2024-01-15T01:58:34.052Z,96001.00
2024-01-15T02:01:01.294Z,95955.00
2024-01-15T02:03:29.639Z,95978.00
2024-01-15T02:05:57.761Z,96014.00
2024-01-15T02:08:24.717Z,96003.00
2024-01-15T02:10:51.572Z,96003.00
2024-01-15T02:13:19.944Z,95994.00
2024-01-15T02:15:47.196Z,95982.00
2024-01-15T02:18:14.578Z,96027.00
2024-01-15T02:20:41.650Z,95988.00
2024-01-15T02:23:15.216Z,96029.00
2024-01-15T02:25:48.344Z,95992.00
2024-01-15T02:28:19.251Z,96014.00
2024-01-15T02:30:46.767Z,96019.00
2024-01-15T02:33:14.734Z,96001.00
2024-01-15T02:35:42.032Z,96005.00
2024-01-15T02:38:09.631Z,96023.00
2024-01-15T02:40:36.977Z,96026.00
2024-01-15T02:43:04.337Z,96012.00
2024-01-15T02:45:31.800Z,95970.00
2024-01-15T02:47:58.866Z,96019.00
2024-01-15T02:50:25.902Z,96026.00
2024-01-15T02:52:53.560Z,96012.00
2024-01-15T02:55:20.461Z,96013.00
2024-01-15T02:57:47.670Z,96015.00
2024-01-15T03:00:15.343Z,96024.00
2024-01-15T03:02:47.238Z,96003.00
2024-01-15T03:05:15.856Z,96009.00
2024-01-15T03:07:43.847Z,96007.00
2024-01-15T03:10:10.868Z,96016.00
2024-01-15T03:12:38.064Z,96009.00
2024-01-15T03:15:05.964Z,96009.00
2024-01-15T03:17:33.078Z,96009.00
2024-01-15T03:20:00.220Z,96014.00
2024-01-15T03:22:27.153Z,96026.00
2024-01-15T03:24:54.651Z,96005.00
2024-01-15T03:27:21.772Z,96004.00
2024-01-15T03:29:48.713Z,95998.00
2024-01-15T03:32:17.226Z,96000.00
2024-01-15T03:34:44.228Z,96000.00
2024-01-15T03:37:11.166Z,96015.00
2024-01-15T03:39:38.108Z,96012.00
2024-01-15T03:42:05.758Z,96028.00
2024-01-15T03:44:32.639Z,96020.00
2024-01-15T03:46:59.941Z,96026.00
2024-01-15T03:49:26.890Z,96026.00
2024-01-15T03:51:53.966Z,96016.00
2024-01-15T03:54:21.392Z,96009.00
2024-01-15T03:56:48.431Z,96012.00
2024-01-15T03:59:15.283Z,96026.00
2024-01-15T04:01:42.371Z,96011.00
2024-01-15T04:04:09.498Z,95993.00
2024-01-15T04:06:36.570Z,96020.00
2024-01-15T04:09:03.974Z,96014.00
2024-01-15T04:11:30.832Z,96034.00
2024-01-15T04:13:57.718Z,95986.00
2024-01-15T04:16:24.615Z,95995.00
2024-01-15T04:18:51.510Z,95981.00
2024-01-15T04:21:19.592Z,95991.00
2024-01-15T04:23:46.585Z,95986.00
2024-01-15T04:26:13.755Z,95987.00
2024-01-15T04:28:41.451Z,95988.00
2024-01-15T04:31:08.438Z,95982.00
2024-01-15T04:33:35.568Z,96003.00
2024-01-15T04:36:05.321Z,95986.00
2024-01-15T04:38:33.566Z,95961.00
2024-01-15T04:41:00.453Z,95994.00
2024-01-15T04:43:27.309Z,95999.00
2024-01-15T04:45:54.384Z,95975.00
2024-01-15T04:48:21.365Z,95973.00
2024-01-15T04:50:49.009Z,95975.00
2024-01-15T04:53:15.847Z,95973.00
2024-01-15T04:55:42.722Z,95970.00
2024-01-15T04:58:12.250Z,95977.00
2024-01-15T05:00:39.207Z,95978.00
2024-01-15T05:03:06.289Z,95976.00
2024-01-15T05:05:33.273Z,95974.00
2024-01-15T05:08:00.219Z,95976.00
2024-01-15T05:10:27.146Z,95957.00
2024-01-15T05:12:54.075Z,95938.00
2024-01-15T05:15:21.199Z,95938.00
2024-01-15T05:17:48.278Z,95941.00
2024-01-15T05:20:15.633Z,95958.00
2024-01-15T05:22:42.617Z,95951.00
2024-01-15T05:25:09.477Z,95929.00
2024-01-15T05:27:36.410Z,95941.00
2024-01-15T05:30:03.959Z,95916.00
2024-01-15T05:32:31.174Z,95938.00
2024-01-15T05:34:58.095Z,95933.00
2024-01-15T05:37:25.009Z,95947.00
2024-01-15T05:39:52.025Z,95931.00
2024-01-15T05:42:18.974Z,95945.00
2024-01-15T05:44:45.850Z,95927.00
2024-01-15T05:47:12.793Z,95925.00
2024-01-15T05:49:39.978Z,95924.00
2024-01-15T05:52:07.165Z,95924.00
2024-01-15T05:54:34.023Z,95930.00
2024-01-15T05:57:00.949Z,95931.00
2024-01-15T05:59:28.074Z,95946.00
2024-01-15T06:01:55.014Z,95940.00
2024-01-15T06:04:22.043Z,95933.00
2024-01-15T06:06:49.103Z,95934.00
2024-01-15T06:09:16.014Z,95937.00
2024-01-15T06:11:42.945Z,95933.00
2024-01-15T06:14:09.789Z,95928.00
2024-01-15T06:16:36.635Z,95930.00
2024-01-15T06:19:04.078Z,95929.00
2024-01-15T06:21:31.113Z,95925.00
2024-01-15T06:23:58.268Z,95926.00
2024-01-15T06:26:25.933Z,95923.00
2024-01-15T06:28:53.065Z,95935.00
2024-01-15T06:31:19.994Z,95904.00
2024-01-15T06:33:49.524Z,95916.00
2024-01-15T06:36:19.884Z,95913.00
2024-01-15T06:38:46.850Z,95904.00
2024-01-15T06:41:13.771Z,95909.00
2024-01-15T06:43:40.686Z,95921.00
2024-01-15T06:46:08.676Z,95920.00
2024-01-15T06:48:36.357Z,95920.00
2024-01-15T06:51:03.425Z,95912.00
2024-01-15T06:53:30.313Z,95904.00
2024-01-15T06:55:57.487Z,95902.00
2024-01-15T06:58:24.564Z,95915.00
2024-01-15T07:00:52.057Z,95914.00
2024-01-15T07:03:19.079Z,95898.00
2024-01-15T07:05:46.079Z,95923.00
2024-01-15T07:08:12.994Z,95908.00
2024-01-15T07:10:39.856Z,95901.00
2024-01-15T07:13:06.789Z,95916.00
2024-01-15T07:15:33.912Z,95906.00
2024-01-15T07:18:00.820Z,95897.00
2024-01-15T07:20:28.091Z,95885.00
2024-01-15T07:22:54.956Z,95902.00
2024-01-15T07:25:21.903Z,95910.00
2024-01-15T07:27:48.982Z,95919.00
2024-01-15T07:30:16.304Z,95925.00
2024-01-15T07:32:43.343Z,95908.00
2024-01-15T07:35:11.445Z,95908.00
2024-01-15T07:37:38.456Z,95911.00
2024-01-15T07:40:09.245Z,95899.00
2024-01-15T07:42:36.473Z,95905.00
2024-01-15T07:45:03.777Z,95897.00
2024-01-15T07:47:30.682Z,95900.00
2024-01-15T07:50:00.168Z,95915.00
2024-01-15T07:52:28.710Z,95931.00
2024-01-15T07:54:56.096Z,95920.00
2024-01-15T07:57:23.936Z,95910.00
2024-01-15T07:59:50.815Z,95913.00
2024-01-15T08:02:17.678Z,95908.00
2024-01-15T08:04:45.520Z,95918.00
2024-01-15T08:07:12.608Z,95905.00
2024-01-15T08:09:39.534Z,95894.00
2024-01-15T08:12:07.231Z,95901.00
2024-01-15T08:14:34.235Z,95898.00
2024-01-15T08:17:02.403Z,95910.00
2024-01-15T08:19:29.414Z,95902.00
2024-01-15T08:21:56.335Z,95895.00
2024-01-15T08:24:23.236Z,95891.00
2024-01-15T08:26:50.130Z,95916.00
2024-01-15T08:29:17.285Z,95907.00
2024-01-15T08:31:44.256Z,95914.00
2024-01-15T08:34:11.296Z,95901.00
2024-01-15T08:36:38.306Z,95900.00
2024-01-15T08:39:05.492Z,95892.00
2024-01-15T08:41:35.750Z,95871.00
2024-01-15T08:44:03.969Z,95882.00
2024-01-15T08:46:31.056Z,95897.00
2024-01-15T08:48:58.125Z,95877.00
2024-01-15T08:51:25.111Z,95891.00
2024-01-15T08:53:52.016Z,95895.00
2024-01-15T08:56:18.917Z,95876.00
2024-01-15T08:58:47.505Z,95887.00
2024-01-15T09:01:14.887Z,95880.00
2024-01-15T09:03:44.975Z,95889.00
2024-01-15T09:06:12.252Z,95893.00
2024-01-15T09:08:39.191Z,95883.00
2024-01-15T09:11:06.078Z,95893.00
2024-01-15T09:13:33.334Z,95902.00
2024-01-15T09:16:01.278Z,95894.00
2024-01-15T09:18:29.313Z,95906.00
2024-01-15T09:20:56.502Z,95902.00
2024-01-15T09:23:23.622Z,95895.00
2024-01-15T09:25:50.804Z,95903.00
2024-01-15T09:28:17.685Z,95888.00
2024-01-15T09:30:46.081Z,95905.00
2024-01-15T09:33:13.238Z,95881.00
2024-01-15T09:35:40.304Z,95903.00
2024-01-15T09:38:07.137Z,95887.00
2024-01-15T09:40:34.874Z,95889.00
2024-01-15T09:43:03.650Z,95898.00
2024-01-15T09:45:31.672Z,95895.00
2024-01-15T09:47:58.863Z,95900.00
2024-01-15T09:50:25.893Z,95897.00
2024-01-15T09:52:53.962Z,95912.00
2024-01-15T09:55:21.144Z,95893.00
2024-01-15T09:57:48.165Z,95900.00
2024-01-15T10:00:18.995Z,95900.00
2024-01-15T10:02:46.145Z,95889.00
2024-01-15T10:05:13.058Z,95906.00
2024-01-15T10:07:41.413Z,95907.00
2024-01-15T10:10:08.892Z,95897.00
2024-01-15T10:12:37.206Z,95907.00
2024-01-15T10:15:05.372Z,95884.00
2024-01-15T10:17:32.383Z,95902.00
2024-01-15T10:19:59.345Z,95900.00
2024-01-15T10:22:27.427Z,95887.00
2024-01-15T10:24:54.564Z,95892.00
2024-01-15T10:27:21.641Z,95883.00
2024-01-15T10:29:48.648Z,95897.00
2024-01-15T10:32:15.571Z,95883.00
2024-01-15T10:34:43.948Z,95879.00
2024-01-15T10:37:11.584Z,95877.00
2024-01-15T10:39:39.753Z,95877.00
2024-01-15T10:42:08.200Z,95879.00
2024-01-15T10:44:36.811Z,95885.00
2024-01-15T10:47:05.211Z,95886.00
2024-01-15T10:49:33.604Z,95862.00
2024-01-15T10:52:03.843Z,95892.00
2024-01-15T10:54:31.606Z,95869.00
2024-01-15T10:56:58.682Z,95887.00
2024-01-15T10:59:26.261Z,95883.00
2024-01-15T11:01:55.759Z,95883.00
2024-01-15T11:04:25.138Z,95883.00
2024-01-15T11:06:58.099Z,95864.00
2024-01-15T11:09:25.897Z,95880.00
2024-01-15T11:12:11.473Z,95885.00
2024-01-15T11:14:46.345Z,95885.00
2024-01-15T11:17:14.488Z,95896.00
2024-01-15T11:19:51.908Z,95875.00
2024-01-15T11:22:31.385Z,95887.00
2024-01-15T11:25:03.726Z,95898.00
2024-01-15T11:27:45.798Z,95881.00
2024-01-15T11:30:14.050Z,95901.00
2024-01-15T11:32:42.516Z,95878.00
2024-01-15T11:35:15.904Z,95890.00
2024-01-15T11:37:52.143Z,95901.00
2024-01-15T11:40:24.120Z,95902.00
2024-01-15T11:42:53.325Z,95885.00
2024-01-15T11:45:21.718Z,95895.00
2024-01-15T11:48:15.167Z,95887.00
2024-01-15T11:50:45.542Z,95896.00
2024-01-15T11:53:18.840Z,95912.00
2024-01-15T11:55:47.443Z,95899.00
2024-01-15T11:58:15.296Z,95906.00
2024-01-15T12:00:45.711Z,95904.00
2024-01-15T12:03:13.158Z,95909.00
2024-01-15T12:05:42.312Z,95912.00
2024-01-15T12:08:12.881Z,95898.00
2024-01-15T12:10:42.389Z,95917.00
2024-01-15T12:13:15.340Z,95908.00
2024-01-15T12:15:44.051Z,95904.00
2024-01-15T12:18:19.713Z,95927.00
2024-01-15T12:20:48.381Z,95908.00
2024-01-15T12:23:16.443Z,95906.00
2024-01-15T12:25:44.154Z,95898.00
2024-01-15T12:28:11.410Z,95908.00
2024-01-15T12:30:39.253Z,95909.00
2024-01-15T12:33:08.368Z,95911.00
2024-01-15T12:35:36.242Z,95917.00
2024-01-15T12:38:04.333Z,95898.00
2024-01-15T12:40:34.183Z,95915.00
2024-01-15T12:43:01.908Z,95914.00
2024-01-15T12:45:28.920Z,95922.00
2024-01-15T12:47:56.380Z,95907.00
2024-01-15T12:50:27.047Z,95907.00
2024-01-15T12:52:53.981Z,95913.00
2024-01-15T12:55:21.057Z,95929.00
2024-01-15T12:57:48.102Z,95914.00
2024-01-15T13:00:16.070Z,95934.00
2024-01-15T13:02:44.821Z,95931.00
2024-01-15T13:05:14.328Z,95921.00
2024-01-15T13:07:42.482Z,95936.00
2024-01-15T13:10:13.247Z,95938.00
2024-01-15T13:12:43.043Z,95928.00
2024-01-15T13:15:14.923Z,95924.00
2024-01-15T13:17:43.993Z,95927.00
2024-01-15T13:20:13.017Z,95930.00
2024-01-15T13:22:41.541Z,95930.00
2024-01-15T13:25:09.942Z,95920.00
2024-01-15T13:27:37.610Z,95929.00
2024-01-15T13:30:07.510Z,95924.00
2024-01-15T13:32:34.463Z,95937.00
2024-01-15T13:35:01.511Z,95938.00
2024-01-15T13:37:28.774Z,95944.00
2024-01-15T13:39:56.168Z,95957.00
2024-01-15T13:42:23.524Z,95951.00
2024-01-15T13:44:50.647Z,95953.00
2024-01-15T13:47:17.694Z,95955.00
2024-01-15T13:49:44.658Z,95941.00
2024-01-15T13:52:11.560Z,95953.00
2024-01-15T13:54:48.110Z,95961.00
2024-01-15T13:57:19.464Z,95952.00
2024-01-15T13:59:47.124Z,95956.00
2024-01-15T14:02:17.676Z,95955.00
2024-01-15T14:04:48.375Z,95962.00
2024-01-15T14:07:15.263Z,95937.00
2024-01-15T14:09:42.138Z,95952.00
2024-01-15T14:12:09.099Z,95957.00
2024-01-15T14:14:36.061Z,95979.00
2024-01-15T14:17:02.918Z,95955.00
2024-01-15T14:19:29.886Z,95973.00
2024-01-15T14:21:57.025Z,95970.00
2024-01-15T14:24:24.145Z,95975.00
2024-01-15T14:26:51.094Z,95977.00
2024-01-15T14:29:20.201Z,95966.00
2024-01-15T14:31:47.616Z,95975.00
2024-01-15T14:34:19.794Z,95987.00
2024-01-15T14:36:47.949Z,95981.00
2024-01-15T14:39:14.984Z,95984.00
2024-01-15T14:41:42.081Z,95972.00
2024-01-15T14:44:08.921Z,95982.00
2024-01-15T14:46:35.765Z,96005.00
2024-01-15T14:49:02.637Z,96003.00
2024-01-15T14:51:29.617Z,95992.00
2024-01-15T14:53:56.461Z,96006.00
2024-01-15T14:56:23.681Z,96011.00
2024-01-15T14:58:50.562Z,96016.00
2024-01-15T15:01:17.822Z,96021.00
2024-01-15T15:03:47.536Z,96011.00
2024-01-15T15:06:14.654Z,96033.00
2024-01-15T15:08:41.898Z,96021.00
2024-01-15T15:11:09.311Z,96032.00
2024-01-15T15:13:42.615Z,96019.00
2024-01-15T15:16:14.413Z,96039.00
2024-01-15T15:18:44.810Z,96040.00
2024-01-15T15:21:12.533Z,96033.00
2024-01-15T15:23:42.320Z,96039.00
2024-01-15T15:26:10.124Z,96025.00
2024-01-15T15:28:37.727Z,96066.00
2024-01-15T15:31:09.286Z,96070.00
2024-01-15T15:33:36.679Z,96067.00
2024-01-15T15:36:06.195Z,96071.00
2024-01-15T15:38:34.009Z,96087.00
2024-01-15T15:41:02.313Z,96086.00
2024-01-15T15:43:30.191Z,96092.00
2024-01-15T15:46:01.211Z,96089.00
2024-01-15T15:48:28.522Z,96102.00
2024-01-15T15:50:56.833Z,96123.00
2024-01-15T15:53:26.406Z,96089.00
2024-01-15T15:55:53.408Z,96109.00
2024-01-15T15:58:21.236Z,96115.00
2024-01-15T16:00:48.290Z,96117.00
2024-01-15T16:03:15.251Z,96136.00
2024-01-15T16:05:49.513Z,96125.00
2024-01-15T16:08:21.287Z,96135.00
2024-01-15T16:10:52.748Z,96144.00
2024-01-15T16:13:20.561Z,96145.00
2024-01-15T16:15:48.027Z,96133.00
2024-01-15T16:23:20.145Z,96144.00
2024-01-15T16:23:34.704Z,96155.00
2024-01-15T16:24:11.947Z,96160.00
2024-01-15T16:26:40.697Z,96157.00
2024-01-15T16:29:08.448Z,96153.00
2024-01-15T16:31:35.537Z,96174.00
2024-01-15T16:34:05.296Z,96166.00
2024-01-15T16:36:34.411Z,96166.00
2024-01-15T16:39:02.340Z,96181.00
2024-01-15T16:41:30.078Z,96172.00
2024-01-15T16:43:56.982Z,96192.00
2024-01-15T16:46:23.931Z,96181.00
2024-01-15T16:48:50.954Z,96191.00
2024-01-15T16:51:17.981Z,96173.00
2024-01-15T16:53:45.122Z,96168.00
2024-01-15T16:56:12.027Z,96169.00
2024-01-15T16:58:38.978Z,96198.00
2024-01-15T17:01:08.838Z,96192.00
2024-01-15T17:03:35.756Z,96193.00
2024-01-15T17:06:02.732Z,96202.00
2024-01-15T17:08:29.687Z,96205.00
2024-01-15T17:10:57.341Z,96206.00
2024-01-15T17:13:25.216Z,96203.00
2024-01-15T17:15:53.542Z,96201.00
2024-01-15T17:18:20.542Z,96210.00
2024-01-15T17:20:47.505Z,96204.00
2024-01-15T17:23:15.498Z,96229.00
2024-01-15T17:25:42.523Z,96227.00
2024-01-15T17:28:09.365Z,96207.00
2024-01-15T17:30:36.266Z,96230.00
2024-01-15T17:33:03.341Z,96230.00
2024-01-15T17:35:30.542Z,96246.00
2024-01-15T17:37:57.537Z,96238.00
2024-01-15T17:40:24.491Z,96242.00
2024-01-15T17:42:51.483Z,96230.00
2024-01-15T17:45:21.944Z,96248.00
2024-01-15T17:52:31.712Z,96270.00
2024-01-15T17:54:58.570Z,96265.00
2024-01-15T17:57:25.703Z,96284.00
2024-01-15T17:59:52.780Z,96290.00
2024-01-15T18:02:19.645Z,96281.00
2024-01-15T18:04:46.567Z,96291.00
2024-01-15T18:07:13.568Z,96288.00
2024-01-15T18:09:40.442Z,96298.00
2024-01-15T18:12:07.956Z,96276.00
2024-01-15T18:14:34.931Z,96295.00
2024-01-15T18:17:01.916Z,96290.00
2024-01-15T18:19:28.940Z,96303.00
2024-01-15T18:21:55.775Z,96298.00
2024-01-15T18:24:22.677Z,96307.00
2024-01-15T18:26:55.203Z,96310.00
2024-01-15T18:29:22.427Z,96314.00
2024-01-15T18:31:50.112Z,96316.00
2024-01-15T18:34:17.518Z,96300.00
2024-01-15T18:36:47.540Z,96305.00
2024-01-15T18:39:18.041Z,96284.00
2024-01-15T18:41:45.681Z,96303.00
2024-01-15T18:44:13.191Z,96318.00
2024-01-15T18:46:44.538Z,96317.00
2024-01-15T18:49:12.614Z,96326.00
2024-01-15T18:51:40.171Z,96309.00
2024-01-15T18:54:07.446Z,96329.00
2024-01-15T18:56:36.644Z,96305.00
2024-01-15T18:59:03.685Z,96316.00
2024-01-15T19:01:33.167Z,96320.00
2024-01-15T19:04:00.966Z,96315.00
2024-01-15T19:06:28.389Z,96315.00
2024-01-15T19:08:55.573Z,96325.00
2024-01-15T19:11:24.193Z,96310.00
2024-01-15T19:13:51.353Z,96328.00
2024-01-15T19:16:23.648Z,96325.00
2024-01-15T19:18:54.594Z,96335.00
2024-01-15T19:21:21.629Z,96332.00
2024-01-15T19:23:48.557Z,96331.00
2024-01-15T19:26:20.044Z,96340.00
2024-01-15T19:28:47.409Z,96329.00
2024-01-15T19:31:14.641Z,96335.00
2024-01-15T19:33:43.826Z,96361.00
2024-01-15T19:36:23.612Z,96345.00
2024-01-15T19:38:51.526Z,96369.00
2024-01-15T19:41:18.629Z,96358.00
2024-01-15T19:43:46.485Z,96363.00
2024-01-15T19:46:13.346Z,96375.00
2024-01-15T19:48:41.210Z,96383.00
2024-01-15T19:51:08.264Z,96378.00
2024-01-15T19:53:35.470Z,96371.00
2024-01-15T19:56:02.447Z,96383.00
2024-01-15T19:58:30.080Z,96375.00
2024-01-15T20:01:00.134Z,96372.00
2024-01-15T20:03:27.073Z,96380.00
2024-01-15T20:05:54.022Z,96379.00
2024-01-15T20:08:20.973Z,96392.00
2024-01-15T20:10:48.311Z,96382.00
2024-01-15T20:13:15.436Z,96402.00
2024-01-15T20:15:42.370Z,96417.00
2024-01-15T20:18:09.646Z,96415.00
2024-01-15T20:20:36.802Z,96415.00
2024-01-15T20:23:05.575Z,96405.00
2024-01-15T20:25:33.530Z,96412.00
2024-01-15T20:28:00.481Z,96416.00
2024-01-15T20:30:27.300Z,96429.00
2024-01-15T20:32:54.371Z,96426.00
2024-01-15T20:35:23.547Z,96436.00
2024-01-15T20:37:55.633Z,96439.00
2024-01-15T20:40:22.504Z,96438.00
2024-01-15T20:42:49.320Z,96420.00
2024-01-15T20:45:16.721Z,96425.00
2024-01-15T20:47:43.599Z,96423.00
2024-01-15T20:50:10.759Z,96436.00
2024-01-15T20:52:38.461Z,96438.00
2024-01-15T20:55:07.652Z,96441.00
2024-01-15T20:57:34.677Z,96431.00
2024-01-15T21:00:01.596Z,96433.00
2024-01-15T21:02:28.748Z,96443.00
2024-01-15T21:04:55.781Z,96449.00
2024-01-15T21:07:23.378Z,96443.00
2024-01-15T21:09:50.286Z,96445.00
2024-01-15T21:12:17.184Z,96452.00
2024-01-15T21:14:44.175Z,96443.00
2024-01-15T21:17:11.312Z,96454.00
2024-01-15T21:19:38.822Z,96464.00
2024-01-15T21:22:06.089Z,96462.00
2024-01-15T21:24:32.982Z,96461.00
2024-01-15T21:27:00.162Z,96459.00
2024-01-15T21:29:27.417Z,96459.00
2024-01-15T21:31:54.750Z,96468.00
2024-01-15T21:34:22.288Z,96461.00
2024-01-15T21:36:51.037Z,96467.00
2024-01-15T21:39:18.534Z,96466.00
2024-01-15T21:41:46.386Z,96485.00
2024-01-15T21:44:14.097Z,96476.00
2024-01-15T21:46:41.134Z,96466.00
2024-01-15T21:49:08.789Z,96471.00
2024-01-15T21:51:36.159Z,96478.00
2024-01-15T21:54:03.329Z,96478.00
2024-01-15T21:56:30.304Z,96477.00
2024-01-15T21:58:57.183Z,96493.00
2024-01-15T22:01:24.754Z,96489.00
2024-01-15T22:03:53.560Z,96485.00
2024-01-15T22:06:20.899Z,96509.00
2024-01-15T22:08:48.757Z,96498.00
2024-01-15T22:11:16.041Z,96512.00
2024-01-15T22:13:42.956Z,96498.00
2024-01-15T22:16:11.406Z,96504.00
2024-01-15T22:18:38.707Z,96511.00
2024-01-15T22:21:06.514Z,96509.00
2024-01-15T22:23:33.775Z,96487.00
2024-01-15T22:26:02.080Z,96512.00
2024-01-15T22:28:29.065Z,96503.00
2024-01-15T22:30:56.086Z,96526.00
2024-01-15T22:33:23.191Z,96512.00
2024-01-15T22:35:50.954Z,96524.00
2024-01-15T22:38:17.982Z,96531.00
2024-01-15T22:40:45.125Z,96521.00
2024-01-15T22:43:12.150Z,96517.00
2024-01-15T22:45:39.190Z,96515.00
2024-01-15T22:48:06.832Z,96517.00
2024-01-15T22:50:33.952Z,96530.00
2024-01-15T22:53:00.925Z,96536.00
2024-01-15T22:55:28.053Z,96545.00
2024-01-15T22:57:55.009Z,96539.00
2024-01-15T23:00:24.627Z,96514.00
2024-01-15T23:02:53.030Z,96540.00
2024-01-15T23:05:20.207Z,96540.00
2024-01-15T23:07:49.671Z,96538.00
2024-01-15T23:10:16.586Z,96529.00
2024-01-15T23:12:43.483Z,96525.00
2024-01-15T23:15:10.488Z,96541.00
2024-01-15T23:17:37.469Z,96549.00
2024-01-15T23:20:05.525Z,96538.00
2024-01-15T23:22:32.466Z,96539.00
2024-01-15T23:25:00.078Z,96547.00
2024-01-15T23:27:26.925Z,96541.00
2024-01-15T23:29:55.657Z,96558.00
2024-01-15T23:32:22.536Z,96540.00
2024-01-15T23:34:49.432Z,96568.00
2024-01-15T23:37:16.362Z,96570.00
2024-01-15T23:39:43.213Z,96556.00
2024-01-15T23:42:13.302Z,96570.00
2024-01-15T23:44:41.739Z,96564.00
2024-01-15T23:47:08.905Z,96551.00
2024-01-15T23:49:35.772Z,96567.00
2024-01-15T23:52:03.439Z,96558.00
2024-01-15T23:54:30.256Z,96558.00
2024-01-15T23:56:57.102Z,96564.00
2024-01-15T23:59:24.165Z,96555.00
